Time;durP1;ratioP1;P1;durP2;ratioP2;P2;SDS_P1;SDS_P2;PMS_P1;PMS_P2;Temp;Humidity;BMP_temperature;BMP_pressure;BME280_temperature;BME280_humidity;BME280_pressure;Samples;Min_cycle;Max_cycle;Signal;HPM_P1;HPM_P2
2021/11/02 00:00:32;;;;;;;1.60;1.50;;;;;;;;;;5041869;28;20591;-74
2021/11/02 00:02:59;;;;;;;3.00;1.70;;;;;;;;;;5046734;28;20204;-74
2021/11/02 00:05:26;;;;;;;3.70;2.28;;;;;;;;;;5048521;28;20223;-74
2021/11/02 00:07:54;;;;;;;2.65;1.55;;;;;;;;;;5047097;28;20683;-75
2021/11/02 00:10:21;;;;;;;1.80;1.42;;;;;;;;;;5044409;28;20214;-75
2021/11/02 00:12:49;;;;;;;1.65;1.45;;;;;;;;;;5045820;28;20195;-74
2021/11/02 00:15:21;;;;;;;3.65;1.80;;;;;;;;;;5044871;28;20192;-75
2021/11/02 00:17:49;;;;;;;1.67;1.33;;;;;;;;;;5037910;28;20194;-73
2021/11/02 00:20:17;;;;;;;2.53;1.60;;;;;;;;;;5046535;28;20191;-74
2021/11/02 00:22:53;;;;;;;2.97;2.30;;;;;;;;;;5035947;28;20266;-73
2021/11/02 00:25:20;;;;;;;4.25;1.80;;;;;;;;;;5040266;28;20761;-74
2021/11/02 00:27:48;;;;;;;4.70;2.28;;;;;;;;;;5043163;28;20203;-74
2021/11/02 00:30:17;;;;;;;2.72;1.65;;;;;;;;;;5046404;28;20199;-75
2021/11/02 00:32:47;;;;;;;1.60;1.23;;;;;;;;;;5047121;28;20192;-74
2021/11/02 00:35:14;;;;;;;3.05;1.80;;;;;;;;;;5049191;28;20622;-75
2021/11/02 00:37:41;;;;;;;2.00;1.75;;;;;;;;;;5046577;28;20198;-73
2021/11/02 00:40:09;;;;;;;3.97;1.98;;;;;;;;;;5038449;28;20195;-75
2021/11/02 00:42:38;;;;;;;3.92;2.05;;;;;;;;;;5039661;28;20231;-75
2021/11/02 00:45:06;;;;;;;4.65;1.50;;;;;;;;;;5049082;28;20433;-75
2021/11/02 00:47:35;;;;;;;1.90;1.70;;;;;;;;;;5047749;28;20191;-76
2021/11/02 00:50:06;;;;;;;2.85;1.98;;;;;;;;;;5046090;28;20686;-75
2021/11/02 00:52:34;;;;;;;3.40;2.05;;;;;;;;;;5049788;28;20226;-75
2021/11/02 00:55:01;;;;;;;5.70;2.05;;;;;;;;;;5054130;28;20191;-75
2021/11/02 00:57:28;;;;;;;2.92;1.63;;;;;;;;;;5048149;28;20198;-74
2021/11/02 00:59:55;;;;;;;3.58;1.85;;;;;;;;;;5051292;28;20746;-74
2021/11/02 01:02:22;;;;;;;3.05;1.85;;;;;;;;;;5046847;28;20187;-74
2021/11/02 01:04:51;;;;;;;2.10;1.45;;;;;;;;;;5048983;28;20238;-75
2021/11/02 01:07:18;;;;;;;2.45;1.70;;;;;;;;;;5044261;28;20226;-75
2021/11/02 01:09:46;;;;;;;6.72;2.05;;;;;;;;;;5051405;28;20628;-74
2021/11/02 01:12:13;;;;;;;3.38;1.40;;;;;;;;;;5040078;28;20215;-75
2021/11/02 01:14:40;;;;;;;2.15;1.30;;;;;;;;;;5048336;28;20196;-76
2021/11/02 01:17:07;;;;;;;2.55;1.77;;;;;;;;;;5052673;28;20200;-74
2021/11/02 01:19:35;;;;;;;3.90;1.60;;;;;;;;;;5041336;28;20203;-75
2021/11/02 01:22:04;;;;;;;1.65;1.42;;;;;;;;;;5052116;28;20191;-76
2021/11/02 01:24:31;;;;;;;3.05;1.55;;;;;;;;;;5053078;28;20222;-74
2021/11/02 01:26:58;;;;;;;1.80;1.50;;;;;;;;;;5045038;28;20712;-74
2021/11/02 01:29:25;;;;;;;1.77;1.20;;;;;;;;;;5048103;28;20568;-74
2021/11/02 01:31:52;;;;;;;4.50;1.60;;;;;;;;;;5051463;28;20199;-75
2021/11/02 01:34:20;;;;;;;2.78;1.77;;;;;;;;;;5045057;28;20206;-74
2021/11/02 01:36:48;;;;;;;2.45;1.33;;;;;;;;;;5051526;28;20207;-75
2021/11/02 01:39:17;;;;;;;2.33;1.40;;;;;;;;;;5045037;28;20191;-75
2021/11/02 01:41:44;;;;;;;2.25;1.45;;;;;;;;;;5047637;28;20680;-74
2021/11/02 01:44:11;;;;;;;2.63;1.70;;;;;;;;;;5050011;28;20231;-75
2021/11/02 01:46:40;;;;;;;2.88;1.40;;;;;;;;;;5043016;28;20191;-74
2021/11/02 01:49:08;;;;;;;4.07;1.08;;;;;;;;;;5046904;28;20567;-75
2021/11/02 01:51:36;;;;;;;5.97;1.90;;;;;;;;;;5046557;28;20203;-75
2021/11/02 01:54:04;;;;;;;2.00;1.48;;;;;;;;;;5060530;28;20203;-75
2021/11/02 01:56:33;;;;;;;2.30;1.30;;;;;;;;;;5044137;28;20207;-74
2021/11/02 01:59:01;;;;;;;2.85;1.40;;;;;;;;;;5049444;28;20198;-75
2021/11/02 02:01:32;;;;;;;1.85;1.10;;;;;;;;;;5044557;28;20196;-74
2021/11/02 02:04:03;;;;;;;3.15;1.60;;;;;;;;;;5052674;28;20187;-75
2021/11/02 02:06:35;;;;;;;3.05;1.50;;;;;;;;;;5050193;28;20230;-76
2021/11/02 02:09:04;;;;;;;5.00;1.15;;;;;;;;;;5048516;28;20200;-74
2021/11/02 02:11:44;;;;;;;2.47;1.25;;;;;;;;;;5046029;28;20204;-75
2021/11/02 02:14:15;;;;;;;2.25;1.35;;;;;;;;;;5043016;28;20563;-76
2021/11/02 02:16:45;;;;;;;3.90;1.60;;;;;;;;;;5047855;28;20200;-75
2021/11/02 02:19:21;;;;;;;1.38;1.25;;;;;;;;;;5052478;28;20223;-76
2021/11/02 02:21:51;;;;;;;2.03;1.60;;;;;;;;;;5048529;28;20286;-74
2021/11/02 02:24:23;;;;;;;1.75;1.40;;;;;;;;;;5046926;28;20215;-74
2021/11/02 02:27:00;;;;;;;2.85;1.58;;;;;;;;;;5047592;28;20668;-74
2021/11/02 02:29:31;;;;;;;3.55;1.20;;;;;;;;;;5052533;28;20210;-75
2021/11/02 02:31:58;;;;;;;1.80;1.50;;;;;;;;;;5047300;28;20198;-74
2021/11/02 02:34:26;;;;;;;2.28;1.10;;;;;;;;;;5045922;28;20545;-75
2021/11/02 02:36:53;;;;;;;2.55;1.55;;;;;;;;;;5057235;28;20226;-75
2021/11/02 02:39:21;;;;;;;1.33;1.15;;;;;;;;;;5035012;28;20199;-75
2021/11/02 02:41:50;;;;;;;2.03;1.25;;;;;;;;;;5042679;28;20208;-74
2021/11/02 02:44:18;;;;;;;1.63;1.17;;;;;;;;;;5043097;28;20684;-74
2021/11/02 02:46:46;;;;;;;2.30;1.10;;;;;;;;;;5049970;28;20675;-74
2021/11/02 02:49:14;;;;;;;2.67;1.10;;;;;;;;;;5055171;28;20199;-76
2021/11/02 02:51:43;;;;;;;3.65;1.50;;;;;;;;;;5046277;28;20578;-75
2021/11/02 02:54:11;;;;;;;1.20;0.90;;;;;;;;;;5049516;28;20199;-74
2021/11/02 02:56:42;;;;;;;2.30;1.55;;;;;;;;;;5041651;28;20744;-74
2021/11/02 02:59:10;;;;;;;1.48;1.10;;;;;;;;;;5044287;28;20246;-74
2021/11/02 03:01:38;;;;;;;4.43;1.20;;;;;;;;;;5043179;28;20195;-74
2021/11/02 03:04:08;;;;;;;1.95;1.27;;;;;;;;;;5046589;28;20254;-74
2021/11/02 03:06:38;;;;;;;2.25;1.13;;;;;;;;;;5047373;28;20191;-74
2021/11/02 03:09:06;;;;;;;2.05;1.10;;;;;;;;;;5045632;28;20200;-73
2021/11/02 03:11:34;;;;;;;1.73;1.13;;;;;;;;;;5044879;28;20593;-74
2021/11/02 03:14:02;;;;;;;2.95;0.95;;;;;;;;;;5044250;28;20564;-73
2021/11/02 03:16:40;;;;;;;1.42;1.27;;;;;;;;;;5042672;28;20204;-73
2021/11/02 03:19:41;;;;;;;2.00;1.27;;;;;;;;;;5046217;28;20223;-74
2021/11/02 03:50:11;;;;;;;1.60;1.10;;;;;;;;;;5076785;28;20217;-76
2021/11/02 03:55:24;;;;;;;2.65;1.00;;;;;;;;;;5086636;28;20192;-77
2021/11/02 03:57:55;;;;;;;1.92;1.20;;;;;;;;;;5082098;28;20189;-76
2021/11/02 04:00:48;;;;;;;1.38;1.20;;;;;;;;;;5075280;28;20228;-77
2021/11/02 04:28:18;;;;;;;1.40;0.98;;;;;;;;;;5068608;28;20198;-76
2021/11/02 04:30:55;;;;;;;3.60;1.40;;;;;;;;;;5076063;28;20193;-76
2021/11/02 05:09:53;;;;;;;3.60;1.50;;;;;;;;;;5043208;28;20198;-75
2021/11/02 05:12:49;;;;;;;2.80;1.00;;;;;;;;;;5059244;28;20206;-77
2021/11/02 05:48:29;;;;;;;2.95;1.20;;;;;;;;;;5056840;28;20264;-77
2021/11/02 05:56:29;;;;;;;2.50;2.30;;;;;;;;;;5067990;28;20211;-79
2021/11/02 05:59:12;;;;;;;2.30;2.10;;;;;;;;;;5063468;28;20571;-78
2021/11/02 06:01:50;;;;;;;3.25;2.65;;;;;;;;;;5063974;28;20682;-79
2021/11/02 06:04:42;;;;;;;2.67;1.73;;;;;;;;;;5062199;28;20263;-79
2021/11/02 06:07:25;;;;;;;2.10;1.48;;;;;;;;;;5058807;28;20214;-78
2021/11/02 06:09:56;;;;;;;5.25;1.50;;;;;;;;;;5062389;28;20234;-78
2021/11/02 06:29:03;;;;;;;4.50;2.00;;;;;;;;;;5063354;28;20241;-78
2021/11/02 06:31:33;;;;;;;2.67;1.55;;;;;;;;;;5063147;28;20248;-78
2021/11/02 06:34:07;;;;;;;2.33;1.60;;;;;;;;;;5056892;28;20339;-78
2021/11/02 06:39:35;;;;;;;1.92;1.75;;;;;;;;;;5057260;28;20603;-78
2021/11/02 06:42:34;;;;;;;4.70;2.25;;;;;;;;;;5061748;28;20711;-78
2021/11/02 06:45:28;;;;;;;2.17;1.98;;;;;;;;;;5063037;28;20208;-78
2021/11/02 06:56:46;;;;;;;2.85;1.85;;;;;;;;;;5066569;28;20243;-78
2021/11/02 06:59:47;;;;;;;2.40;2.20;;;;;;;;;;5065260;28;20673;-78
2021/11/02 07:19:18;;;;;;;5.93;2.40;;;;;;;;;;5004846;28;20286;-79
2021/11/02 07:22:00;;;;;;;2.90;1.60;;;;;;;;;;5067428;28;20198;-79
2021/11/02 07:24:33;;;;;;;1.67;1.40;;;;;;;;;;5066058;28;20191;-79
2021/11/02 07:27:13;;;;;;;2.13;1.92;;;;;;;;;;5061993;28;20224;-79
2021/11/02 08:47:28;;;;;;;1.75;1.13;;;;;;;;;;5066017;28;20215;-76
2021/11/02 08:49:55;;;;;;;1.90;1.50;;;;;;;;;;5076186;28;20619;-76
2021/11/02 08:52:22;;;;;;;1.92;1.42;;;;;;;;;;5057090;28;20218;-76
2021/11/02 08:54:50;;;;;;;2.35;1.42;;;;;;;;;;5066452;28;20195;-76
2021/11/02 08:57:18;;;;;;;1.50;1.20;;;;;;;;;;5061740;28;20198;-76
2021/11/02 08:59:46;;;;;;;1.50;1.30;;;;;;;;;;5061784;28;20234;-76
2021/11/02 09:02:21;;;;;;;2.53;1.60;;;;;;;;;;5056636;28;20198;-76
2021/11/02 09:04:49;;;;;;;3.05;1.25;;;;;;;;;;5066392;28;20206;-76
2021/11/02 09:07:20;;;;;;;1.75;1.10;;;;;;;;;;5058065;28;20218;-77
2021/11/02 09:09:48;;;;;;;3.17;1.30;;;;;;;;;;5070050;28;20590;-76
2021/11/02 09:12:18;;;;;;;3.17;1.52;;;;;;;;;;5065986;28;20678;-75
2021/11/02 09:14:46;;;;;;;3.05;1.30;;;;;;;;;;5061589;28;20205;-75
2021/11/02 09:17:15;;;;;;;1.30;1.10;;;;;;;;;;5060568;28;22036;-81
2021/11/02 09:19:42;;;;;;;3.13;1.17;;;;;;;;;;5058055;28;20210;-80
2021/11/02 09:22:12;;;;;;;2.95;1.40;;;;;;;;;;5059901;28;20663;-81
2021/11/02 09:24:42;;;;;;;2.15;1.45;;;;;;;;;;5059704;28;20190;-80
2021/11/02 09:27:10;;;;;;;1.75;1.38;;;;;;;;;;5059951;28;20217;-79
2021/11/02 09:29:37;;;;;;;2.63;1.20;;;;;;;;;;5060753;28;20194;-79
2021/11/02 09:32:06;;;;;;;1.63;1.33;;;;;;;;;;5059806;28;20740;-78
2021/11/02 09:34:34;;;;;;;1.90;1.05;;;;;;;;;;5062258;28;20194;-78
2021/11/02 09:37:05;;;;;;;2.40;1.63;;;;;;;;;;5054378;28;20191;-78
2021/11/02 09:39:38;;;;;;;1.52;0.98;;;;;;;;;;5060042;28;20289;-78
2021/11/02 09:42:36;;;;;;;1.52;1.05;;;;;;;;;;5061734;28;20621;-80
2021/11/02 09:45:27;;;;;;;2.85;1.27;;;;;;;;;;5061544;28;20206;-79
2021/11/02 09:48:13;;;;;;;1.27;1.17;;;;;;;;;;5057766;28;20564;-80
2021/11/02 09:50:53;;;;;;;1.98;1.35;;;;;;;;;;5060723;28;20222;-81
2021/11/02 09:53:46;;;;;;;1.63;1.08;;;;;;;;;;5058987;28;20189;-81
2021/11/02 09:56:19;;;;;;;2.42;1.17;;;;;;;;;;5051241;28;20198;-80
2021/11/02 09:59:11;;;;;;;1.63;1.00;;;;;;;;;;5062659;28;20228;-78
2021/11/02 10:01:45;;;;;;;1.40;1.17;;;;;;;;;;5062768;28;20198;-78
2021/11/02 10:04:42;;;;;;;1.90;1.00;;;;;;;;;;5060799;28;20647;-79
2021/11/02 10:07:22;;;;;;;1.40;1.30;;;;;;;;;;5058026;28;20229;-78
2021/11/02 10:09:56;;;;;;;1.63;1.17;;;;;;;;;;5058246;28;20197;-78
2021/11/02 10:12:24;;;;;;;4.70;1.20;;;;;;;;;;5057080;28;20194;-79
2021/11/02 10:15:05;;;;;;;1.10;0.90;;;;;;;;;;5068879;28;20685;-78
2021/11/02 10:17:54;;;;;;;1.10;1.00;;;;;;;;;;5060872;28;20187;-78
2021/11/02 10:20:29;;;;;;;2.65;1.00;;;;;;;;;;5059202;28;20264;-79
2021/11/02 10:23:10;;;;;;;2.47;1.35;;;;;;;;;;5057570;28;20209;-78
2021/11/02 10:25:58;;;;;;;1.48;1.00;;;;;;;;;;5067206;28;20194;-78
2021/11/02 10:28:36;;;;;;;1.10;0.95;;;;;;;;;;5029699;28;20221;-78
2021/11/02 10:31:04;;;;;;;1.10;1.00;;;;;;;;;;5060582;28;20194;-77
2021/11/02 10:33:33;;;;;;;1.98;1.08;;;;;;;;;;5059128;28;20194;-77
2021/11/02 10:36:01;;;;;;;2.10;1.00;;;;;;;;;;5057422;28;20659;-77
2021/11/02 10:38:36;;;;;;;0.95;0.85;;;;;;;;;;5062129;28;20243;-77
2021/11/02 10:41:07;;;;;;;1.40;1.00;;;;;;;;;;5058950;28;20197;-79
2021/11/02 10:43:50;;;;;;;1.20;1.05;;;;;;;;;;5050783;28;20203;-78
2021/11/02 10:46:17;;;;;;;1.20;0.88;;;;;;;;;;5044265;28;20690;-78
2021/11/02 10:48:46;;;;;;;1.20;0.82;;;;;;;;;;5060741;28;20667;-78
2021/11/02 10:51:25;;;;;;;3.03;1.10;;;;;;;;;;5057450;28;20190;-78
2021/11/02 10:53:58;;;;;;;1.63;1.15;;;;;;;;;;5053086;28;20633;-78
2021/11/02 10:56:32;;;;;;;1.20;1.02;;;;;;;;;;5055578;28;20202;-78
2021/11/02 10:59:01;;;;;;;1.48;0.90;;;;;;;;;;5062384;28;20281;-79
2021/11/02 11:01:29;;;;;;;3.58;1.17;;;;;;;;;;5060220;28;20591;-78
2021/11/02 11:03:57;;;;;;;1.90;1.00;;;;;;;;;;5066789;28;20694;-78
2021/11/02 11:06:25;;;;;;;1.00;0.88;;;;;;;;;;5061702;28;20218;-77
2021/11/02 11:08:52;;;;;;;1.98;1.00;;;;;;;;;;5063799;28;20191;-78
2021/11/02 11:11:22;;;;;;;1.33;0.90;;;;;;;;;;5065427;28;20634;-78
2021/11/02 11:13:51;;;;;;;2.83;1.02;;;;;;;;;;5060838;28;20199;-78
2021/11/02 11:16:19;;;;;;;1.00;0.80;;;;;;;;;;5070735;28;20191;-78
2021/11/02 11:18:51;;;;;;;1.60;1.23;;;;;;;;;;5060307;28;20191;-78
2021/11/02 11:21:19;;;;;;;0.90;0.80;;;;;;;;;;5065109;28;20259;-82
2021/11/02 11:23:50;;;;;;;1.55;1.10;;;;;;;;;;5060848;28;20600;-79
2021/11/02 11:26:18;;;;;;;2.88;1.20;;;;;;;;;;5064363;28;20213;-79
2021/11/02 11:28:48;;;;;;;1.70;0.93;;;;;;;;;;5057849;28;20674;-80
2021/11/02 11:31:18;;;;;;;1.30;0.93;;;;;;;;;;5066170;28;20199;-79
2021/11/02 11:33:45;;;;;;;1.90;1.30;;;;;;;;;;5056573;28;20206;-80
2021/11/02 11:36:14;;;;;;;1.50;0.80;;;;;;;;;;5054618;28;20215;-80
2021/11/02 11:38:43;;;;;;;1.13;0.80;;;;;;;;;;5070724;28;20198;-79
2021/11/02 11:41:12;;;;;;;1.38;0.90;;;;;;;;;;5068226;28;20226;-78
2021/11/02 11:43:40;;;;;;;1.92;1.20;;;;;;;;;;5070375;28;20383;-78
2021/11/02 11:46:11;;;;;;;2.88;1.20;;;;;;;;;;5076270;28;20209;-79
2021/11/02 11:48:42;;;;;;;1.55;1.25;;;;;;;;;;5062734;28;20655;-78
2021/11/02 11:51:09;;;;;;;1.30;0.95;;;;;;;;;;5068514;28;20244;-78
2021/11/02 11:53:37;;;;;;;2.63;1.00;;;;;;;;;;5065472;28;20195;-79
2021/11/02 11:56:07;;;;;;;1.42;0.90;;;;;;;;;;5056686;28;20296;-78
2021/11/02 11:58:34;;;;;;;1.60;1.05;;;;;;;;;;5057146;28;20208;-78
2021/11/02 12:01:15;;;;;;;1.30;0.90;;;;;;;;;;5058280;28;20234;-79
2021/11/02 12:03:50;;;;;;;1.02;0.80;;;;;;;;;;5066279;28;20198;-77
2021/11/02 12:06:21;;;;;;;1.83;1.30;;;;;;;;;;5061249;28;20198;-77
2021/11/02 12:08:52;;;;;;;1.65;0.95;;;;;;;;;;5058638;28;20199;-78
2021/11/02 12:11:21;;;;;;;2.83;1.20;;;;;;;;;;5068116;28;20221;-77
2021/11/02 12:13:51;;;;;;;2.10;1.10;;;;;;;;;;5065328;28;20244;-78
2021/11/02 12:16:30;;;;;;;1.33;1.00;;;;;;;;;;5059250;28;20194;-78
2021/11/02 12:19:02;;;;;;;1.30;0.90;;;;;;;;;;5062864;28;20186;-78
2021/11/02 12:21:32;;;;;;;2.55;1.10;;;;;;;;;;5055348;28;20589;-77
2021/11/02 12:24:01;;;;;;;1.75;0.98;;;;;;;;;;5060594;28;20202;-77
2021/11/02 12:26:37;;;;;;;1.30;0.90;;;;;;;;;;5051699;28;20207;-78
2021/11/02 12:29:07;;;;;;;1.20;0.90;;;;;;;;;;5064807;28;20229;-77
2021/11/02 12:31:37;;;;;;;1.13;1.00;;;;;;;;;;5065800;28;20202;-79
2021/11/02 12:34:11;;;;;;;2.00;0.90;;;;;;;;;;5068688;28;20544;-79
2021/11/02 12:36:45;;;;;;;2.55;0.90;;;;;;;;;;5065650;28;20671;-80
2021/11/02 12:39:13;;;;;;;2.63;0.88;;;;;;;;;;5064778;28;21098;-80
2021/11/02 12:41:48;;;;;;;2.30;1.15;;;;;;;;;;5063053;28;20298;-80
2021/11/02 12:44:16;;;;;;;1.90;1.00;;;;;;;;;;5066939;28;20262;-78
2021/11/02 12:46:45;;;;;;;0.90;0.80;;;;;;;;;;5064938;28;20268;-77
2021/11/02 12:49:15;;;;;;;1.10;0.70;;;;;;;;;;5052643;28;20198;-78
2021/11/02 12:51:48;;;;;;;3.13;0.95;;;;;;;;;;5061233;28;20622;-78
2021/11/02 12:54:18;;;;;;;1.50;1.00;;;;;;;;;;5071347;28;20236;-79
2021/11/02 12:56:52;;;;;;;1.10;0.80;;;;;;;;;;5066461;28;20190;-77
2021/11/02 12:59:23;;;;;;;1.10;0.80;;;;;;;;;;5066904;28;20214;-78
2021/11/02 13:01:52;;;;;;;1.10;0.85;;;;;;;;;;5058139;28;20273;-80
2021/11/02 13:04:20;;;;;;;1.60;0.95;;;;;;;;;;5068567;28;20186;-77
2021/11/02 13:06:48;;;;;;;0.90;0.80;;;;;;;;;;5062781;28;20206;-78
2021/11/02 13:09:19;;;;;;;1.00;0.77;;;;;;;;;;5060488;28;20591;-80
2021/11/02 13:11:47;;;;;;;1.98;1.27;;;;;;;;;;5061300;28;20561;-79
2021/11/02 13:14:16;;;;;;;1.65;0.90;;;;;;;;;;5068078;28;20297;-80
2021/11/02 13:16:58;;;;;;;0.95;0.70;;;;;;;;;;5065047;28;20206;-79
2021/11/02 13:19:31;;;;;;;1.00;0.90;;;;;;;;;;5068245;28;20194;-79
2021/11/02 13:22:06;;;;;;;1.15;0.80;;;;;;;;;;5069594;28;20210;-78
2021/11/02 13:24:33;;;;;;;2.42;0.90;;;;;;;;;;5076837;28;20201;-80
2021/11/02 13:27:00;;;;;;;1.30;0.85;;;;;;;;;;5065589;28;20198;-79
2021/11/02 13:29:28;;;;;;;1.20;0.95;;;;;;;;;;5060905;28;20194;-80
2021/11/02 13:31:56;;;;;;;1.40;0.90;;;;;;;;;;5061314;28;20202;-80
2021/11/02 13:34:35;;;;;;;1.20;1.00;;;;;;;;;;5060153;28;20191;-79
2021/11/02 13:37:02;;;;;;;1.40;0.90;;;;;;;;;;5055899;28;20210;-79
2021/11/02 13:39:50;;;;;;;1.70;0.70;;;;;;;;;;5060802;28;20202;-79
2021/11/02 13:42:17;;;;;;;1.23;0.80;;;;;;;;;;5057988;28;21772;-80
2021/11/02 13:44:47;;;;;;;2.08;1.08;;;;;;;;;;5061980;28;20198;-79
2021/11/02 13:47:15;;;;;;;1.90;1.15;;;;;;;;;;5060072;28;21543;-79
2021/11/02 13:49:46;;;;;;;1.40;1.00;;;;;;;;;;5058958;28;20190;-79
2021/11/02 13:52:13;;;;;;;0.90;0.80;;;;;;;;;;5060851;28;20228;-79
2021/11/02 13:54:41;;;;;;;2.75;0.90;;;;;;;;;;5059490;28;20627;-79
2021/11/02 13:57:08;;;;;;;1.83;1.00;;;;;;;;;;5057138;28;20214;-80
2021/11/02 13:59:35;;;;;;;0.95;0.80;;;;;;;;;;5063364;28;20222;-79
2021/11/02 14:02:03;;;;;;;1.00;0.80;;;;;;;;;;5059830;28;20202;-79
2021/11/02 14:04:32;;;;;;;1.95;1.10;;;;;;;;;;5061358;28;20773;-79
2021/11/02 14:07:03;;;;;;;1.02;0.77;;;;;;;;;;5059238;28;20209;-79
2021/11/02 14:09:33;;;;;;;1.25;0.90;;;;;;;;;;5061011;28;20202;-79
2021/11/02 14:12:00;;;;;;;1.50;0.80;;;;;;;;;;5050292;28;20476;-79
2021/11/02 14:14:31;;;;;;;1.60;1.10;;;;;;;;;;5058632;28;20575;-79
2021/11/02 14:16:58;;;;;;;1.30;0.90;;;;;;;;;;5059288;28;20686;-79
2021/11/02 14:19:39;;;;;;;1.17;0.90;;;;;;;;;;5058863;28;20707;-79
2021/11/02 14:22:08;;;;;;;1.92;0.90;;;;;;;;;;5061212;28;20213;-79
2021/11/02 14:24:36;;;;;;;3.30;1.13;;;;;;;;;;5060402;28;20683;-80
2021/11/02 14:27:04;;;;;;;1.40;1.00;;;;;;;;;;5059231;28;20199;-79
2021/11/02 14:29:48;;;;;;;1.00;0.80;;;;;;;;;;5051762;28;20203;-80
2021/11/02 14:32:30;;;;;;;1.65;1.13;;;;;;;;;;5060157;28;20309;-79
2021/11/02 14:34:57;;;;;;;2.25;1.35;;;;;;;;;;5056459;28;20198;-80
2021/11/02 14:37:27;;;;;;;2.65;1.75;;;;;;;;;;5059112;28;20215;-79
2021/11/02 14:39:55;;;;;;;2.70;1.55;;;;;;;;;;5060247;28;20299;-80
2021/11/02 14:42:41;;;;;;;1.30;1.08;;;;;;;;;;5057784;28;20202;-80
2021/11/02 14:45:08;;;;;;;1.10;1.00;;;;;;;;;;5060106;28;20213;-80
2021/11/02 14:47:36;;;;;;;1.20;0.80;;;;;;;;;;5054461;28;20214;-78
2021/11/02 14:50:03;;;;;;;1.40;1.08;;;;;;;;;;5057548;28;20667;-78
2021/11/02 14:52:35;;;;;;;1.15;1.00;;;;;;;;;;5055107;28;20198;-79
2021/11/02 14:55:02;;;;;;;2.75;1.10;;;;;;;;;;5056495;28;20626;-78
2021/11/02 14:57:51;;;;;;;1.50;1.15;;;;;;;;;;5061765;28;20206;-78
2021/11/02 15:00:37;;;;;;;2.35;1.15;;;;;;;;;;5055985;28;20214;-78
2021/11/02 15:03:15;;;;;;;3.38;1.20;;;;;;;;;;5059829;28;20202;-78
2021/11/02 15:05:43;;;;;;;3.92;1.08;;;;;;;;;;5059827;28;20705;-78
2021/11/02 15:08:13;;;;;;;1.20;1.10;;;;;;;;;;5060522;28;20206;-78
2021/11/02 15:10:44;;;;;;;1.25;1.13;;;;;;;;;;5056988;28;20647;-78
2021/11/02 15:13:11;;;;;;;3.17;0.90;;;;;;;;;;5047952;28;20210;-78
2021/11/02 15:15:40;;;;;;;1.65;0.90;;;;;;;;;;5057308;28;20203;-78
2021/11/02 15:18:08;;;;;;;1.73;1.02;;;;;;;;;;5065022;28;20685;-79
2021/11/02 15:20:35;;;;;;;1.60;0.95;;;;;;;;;;5072663;28;20516;-78
2021/11/02 15:23:02;;;;;;;1.23;0.80;;;;;;;;;;5056490;28;20198;-78
2021/11/02 15:25:31;;;;;;;1.30;1.00;;;;;;;;;;5054379;28;20210;-77
2021/11/02 15:28:00;;;;;;;1.10;1.00;;;;;;;;;;5058554;28;20227;-79
2021/11/02 15:30:27;;;;;;;1.60;1.00;;;;;;;;;;5058654;28;20222;-79
2021/11/02 15:32:54;;;;;;;1.65;0.98;;;;;;;;;;5058052;28;20203;-78
2021/11/02 15:35:22;;;;;;;1.25;1.00;;;;;;;;;;5072165;28;20198;-78
2021/11/02 15:37:50;;;;;;;1.10;1.00;;;;;;;;;;5058576;28;20690;-79
2021/11/02 15:40:19;;;;;;;1.02;0.88;;;;;;;;;;5058486;28;20205;-79
2021/11/02 15:45:58;;;;;;;1.10;0.90;;;;;;;;;;5079235;28;20206;-79
2021/11/02 15:48:26;;;;;;;1.10;0.90;;;;;;;;;;5075878;28;20216;-78
2021/11/02 15:50:54;;;;;;;1.05;0.80;;;;;;;;;;5059418;28;20202;-79
2021/11/02 15:53:26;;;;;;;1.85;0.90;;;;;;;;;;5060944;28;20201;-78
2021/11/02 15:55:56;;;;;;;1.23;1.10;;;;;;;;;;5061603;28;20208;-79
2021/11/02 15:58:25;;;;;;;1.10;0.90;;;;;;;;;;5060273;28;20197;-79
2021/11/02 16:00:52;;;;;;;4.60;0.93;;;;;;;;;;5057152;28;20679;-78
2021/11/02 16:03:21;;;;;;;1.30;0.90;;;;;;;;;;5061972;28;20677;-79
2021/11/02 16:05:48;;;;;;;1.75;1.65;;;;;;;;;;5061050;28;20465;-78
2021/11/02 16:08:16;;;;;;;1.45;0.80;;;;;;;;;;5059901;28;20211;-79
2021/11/02 16:10:45;;;;;;;1.05;0.80;;;;;;;;;;5062127;28;20218;-79
2021/11/02 16:13:12;;;;;;;0.90;0.80;;;;;;;;;;5059720;28;20201;-78
2021/11/02 16:15:39;;;;;;;1.10;0.90;;;;;;;;;;5057001;28;20191;-78
2021/11/02 16:18:08;;;;;;;1.55;1.00;;;;;;;;;;5057423;28;20217;-80
2021/11/02 16:20:37;;;;;;;1.73;1.10;;;;;;;;;;5055270;28;20201;-79
2021/11/02 16:23:07;;;;;;;1.55;1.08;;;;;;;;;;5056740;28;20191;-80
2021/11/02 16:25:37;;;;;;;1.30;1.20;;;;;;;;;;5058869;28;20246;-80
2021/11/02 16:28:06;;;;;;;1.02;0.85;;;;;;;;;;5058316;28;20214;-80
2021/11/02 16:30:34;;;;;;;1.58;1.00;;;;;;;;;;5059681;28;20191;-80
2021/11/02 16:33:02;;;;;;;1.15;0.93;;;;;;;;;;5058318;28;20259;-79
2021/11/02 16:35:32;;;;;;;2.67;1.30;;;;;;;;;;5058648;28;20198;-80
2021/11/02 16:38:17;;;;;;;1.20;0.80;;;;;;;;;;5052396;28;20590;-80
2021/11/02 16:40:45;;;;;;;1.10;0.80;;;;;;;;;;5057124;28;20202;-80
2021/11/02 16:43:12;;;;;;;2.97;1.10;;;;;;;;;;5055818;28;20200;-80
2021/11/02 16:45:39;;;;;;;2.00;0.88;;;;;;;;;;5055988;28;20656;-80
2021/11/02 16:48:08;;;;;;;2.33;0.90;;;;;;;;;;5058607;28;20245;-80
2021/11/02 16:50:37;;;;;;;1.20;0.90;;;;;;;;;;5055837;28;20187;-79
2021/11/02 16:53:12;;;;;;;1.83;1.02;;;;;;;;;;5058077;28;20303;-78
2021/11/02 16:55:40;;;;;;;1.20;1.10;;;;;;;;;;5055909;28;20237;-80
2021/11/02 16:58:25;;;;;;;1.48;0.90;;;;;;;;;;5054552;28;20206;-80
2021/11/02 17:01:10;;;;;;;1.35;0.98;;;;;;;;;;5053812;28;20218;-81
2021/11/02 17:03:37;;;;;;;3.13;0.95;;;;;;;;;;5058924;28;20191;-80
2021/11/02 17:06:10;;;;;;;1.27;1.10;;;;;;;;;;5059461;28;20199;-80
2021/11/02 17:08:38;;;;;;;1.35;1.00;;;;;;;;;;5060287;28;20215;-80
2021/11/02 17:11:06;;;;;;;1.50;1.10;;;;;;;;;;5053235;28;20202;-80
2021/11/02 17:13:35;;;;;;;2.45;1.30;;;;;;;;;;5057666;28;20187;-79
2021/11/02 17:16:05;;;;;;;1.35;0.80;;;;;;;;;;5058937;28;20217;-80
2021/11/02 17:18:45;;;;;;;1.10;0.90;;;;;;;;;;5058944;28;20196;-80
2021/11/02 17:21:12;;;;;;;1.70;1.02;;;;;;;;;;5060006;28;20203;-79
2021/11/02 17:23:42;;;;;;;1.50;1.20;;;;;;;;;;5059668;28;20207;-80
2021/11/02 17:26:10;;;;;;;1.10;0.90;;;;;;;;;;5058334;28;20199;-79
2021/11/02 17:28:37;;;;;;;0.90;0.80;;;;;;;;;;5059973;28;20210;-80
2021/11/02 17:31:06;;;;;;;1.60;1.00;;;;;;;;;;5060462;28;20190;-81
2021/11/02 17:33:33;;;;;;;1.02;0.90;;;;;;;;;;5050292;28;20191;-81
2021/11/02 17:36:01;;;;;;;1.98;1.10;;;;;;;;;;5059590;28;20203;-80
2021/11/02 17:38:29;;;;;;;1.40;1.30;;;;;;;;;;5059393;28;20632;-80
2021/11/02 17:40:57;;;;;;;1.40;0.95;;;;;;;;;;5057928;28;20198;-81
2021/11/02 17:43:26;;;;;;;1.30;1.20;;;;;;;;;;5059469;28;20642;-81
2021/11/02 17:45:53;;;;;;;1.33;1.23;;;;;;;;;;5062093;28;20202;-81
2021/11/02 17:48:20;;;;;;;1.92;1.20;;;;;;;;;;5059773;28;20912;-81
2021/11/02 17:50:48;;;;;;;1.60;1.17;;;;;;;;;;5049511;28;20202;-81
2021/11/02 17:53:15;;;;;;;1.38;1.10;;;;;;;;;;5058061;28;20190;-81
2021/11/02 17:55:43;;;;;;;1.10;0.90;;;;;;;;;;5059473;28;20194;-81
2021/11/02 17:58:11;;;;;;;1.10;0.90;;;;;;;;;;5058603;28;20206;-79
2021/11/02 18:00:38;;;;;;;1.63;1.15;;;;;;;;;;5057299;28;20225;-81
2021/11/02 18:03:07;;;;;;;1.20;1.10;;;;;;;;;;5049255;28;20198;-81
2021/11/02 18:05:35;;;;;;;1.98;1.83;;;;;;;;;;5056637;28;20552;-81
2021/11/02 18:08:04;;;;;;;2.20;1.23;;;;;;;;;;5058784;28;20207;-81
2021/11/02 18:10:33;;;;;;;1.02;0.80;;;;;;;;;;5057786;28;20214;-81
2021/11/02 18:13:01;;;;;;;2.50;1.50;;;;;;;;;;5056500;28;20218;-80
2021/11/02 18:15:29;;;;;;;2.05;1.13;;;;;;;;;;5072926;28;20190;-80
2021/11/02 18:17:58;;;;;;;1.35;1.08;;;;;;;;;;5058225;28;20234;-80
2021/11/02 18:20:25;;;;;;;1.20;1.02;;;;;;;;;;5058799;28;22125;-80
2021/11/02 18:22:53;;;;;;;1.50;1.02;;;;;;;;;;5049431;28;20190;-80
2021/11/02 18:25:21;;;;;;;1.95;1.20;;;;;;;;;;5058355;28;20682;-80
2021/11/02 18:27:49;;;;;;;1.17;0.95;;;;;;;;;;5056317;28;20223;-80
2021/11/02 18:30:17;;;;;;;1.98;1.42;;;;;;;;;;5058744;28;20744;-80
2021/11/02 18:32:46;;;;;;;1.90;1.10;;;;;;;;;;5056634;28;20685;-80
2021/11/02 18:35:14;;;;;;;2.03;1.67;;;;;;;;;;5063373;28;20193;-79
2021/11/02 18:37:42;;;;;;;2.30;1.40;;;;;;;;;;5051068;28;20809;-80
2021/11/02 18:40:11;;;;;;;2.17;1.33;;;;;;;;;;5050966;28;20311;-80
2021/11/02 18:42:38;;;;;;;1.30;1.20;;;;;;;;;;5063302;28;20190;-78
2021/11/02 18:45:06;;;;;;;1.52;1.23;;;;;;;;;;5062650;28;20195;-79
2021/11/02 18:47:34;;;;;;;2.17;1.40;;;;;;;;;;5057668;28;20206;-77
2021/11/02 18:50:04;;;;;;;2.42;1.55;;;;;;;;;;5062209;28;20210;-79
2021/11/02 18:52:31;;;;;;;1.80;1.45;;;;;;;;;;5065253;28;20194;-78
2021/11/02 18:54:58;;;;;;;1.83;1.27;;;;;;;;;;5054133;28;20297;-80
2021/11/02 18:57:26;;;;;;;1.75;1.58;;;;;;;;;;5064067;28;20203;-77
2021/11/02 18:59:54;;;;;;;1.55;1.35;;;;;;;;;;5058402;28;20703;-77
2021/11/02 19:02:21;;;;;;;1.50;1.30;;;;;;;;;;5059139;28;20568;-76
2021/11/02 19:04:48;;;;;;;1.40;1.30;;;;;;;;;;5055766;28;20203;-74
2021/11/02 19:07:17;;;;;;;2.45;1.70;;;;;;;;;;5055558;28;20207;-75
2021/11/02 19:09:44;;;;;;;2.67;2.00;;;;;;;;;;5046922;28;20237;-76
2021/11/02 19:12:11;;;;;;;1.77;1.52;;;;;;;;;;5052141;28;20205;-75
2021/11/02 19:14:38;;;;;;;2.47;2.08;;;;;;;;;;5059378;28;20679;-77
2021/11/02 19:17:05;;;;;;;2.25;2.00;;;;;;;;;;5056456;28;20260;-75
2021/11/02 19:19:33;;;;;;;2.33;2.13;;;;;;;;;;5060595;28;20203;-75
2021/11/02 19:22:00;;;;;;;2.10;1.90;;;;;;;;;;5061705;28;20222;-75